createdAt,value
2023-04-02T00:01:41.109Z,3.8
2023-04-02T00:07:30.928Z,3.4
2023-04-02T00:13:24.633Z,3.2
2023-04-02T00:19:10.783Z,3.1
2023-04-02T00:24:57.037Z,3
2023-04-02T00:30:46.224Z,2.9
2023-04-02T00:36:32.380Z,2.8
2023-04-02T00:42:17.362Z,2.5
2023-04-02T00:48:02.592Z,2.3
2023-04-02T00:53:47.410Z,2.5
2023-04-02T00:59:33.488Z,2.5
2023-04-02T01:05:26.526Z,2.6
2023-04-02T01:11:16.714Z,2.7
2023-04-02T01:17:05.837Z,2.5
2023-04-02T01:22:54.006Z,2.4
2023-04-02T01:28:38.167Z,2.2
2023-04-02T01:34:26.705Z,2.3
2023-04-02T01:40:20.868Z,2.5
2023-04-02T01:46:07.338Z,2.3
2023-04-02T01:51:53.052Z,2.3
2023-04-02T01:57:37.200Z,2.2
2023-04-02T02:03:21.854Z,2.2
2023-04-02T02:09:06.831Z,2.5
2023-04-02T02:14:54.088Z,2.2
2023-04-02T02:20:38.091Z,2.5
2023-04-02T02:26:22.719Z,2.3
2023-04-02T02:32:08.658Z,2.6
2023-04-02T02:37:54.806Z,2.5
2023-04-02T02:43:42.065Z,2.8
2023-04-02T02:49:28.199Z,3
2023-04-02T02:55:14.437Z,2.7
2023-04-02T03:00:58.694Z,2.8
2023-04-02T03:06:43.010Z,3.1
2023-04-02T03:12:37.180Z,3.3
2023-04-02T03:18:26.239Z,3
2023-04-02T03:24:14.605Z,2.9
2023-04-02T03:30:03.243Z,2.8
2023-04-02T03:35:49.889Z,3.2
2023-04-02T03:41:36.990Z,3
2023-04-02T03:47:22.989Z,3.1
2023-04-02T03:53:07.450Z,3
2023-04-02T03:58:54.434Z,3.3
2023-04-02T04:04:42.614Z,3.1
2023-04-02T04:10:28.294Z,3.2
2023-04-02T04:16:14.399Z,3.2
2023-04-02T04:22:03.318Z,3.2
2023-04-02T04:27:52.940Z,3.5
2023-04-02T04:33:41.235Z,3.2
2023-04-02T04:39:27.554Z,3.7
2023-04-02T04:45:15.831Z,3.8
2023-04-02T04:51:01.994Z,3.9
2023-04-02T04:56:47.932Z,4
2023-04-02T05:02:36.244Z,4.5
2023-04-02T05:08:22.906Z,5
2023-04-02T05:14:08.982Z,5.7
2023-04-02T05:19:55.382Z,5.5
2023-04-02T05:25:40.367Z,5.4
2023-04-02T05:31:26.734Z,5.6
2023-04-02T05:37:15.766Z,5.3
2023-04-02T05:43:01.198Z,5.6
2023-04-02T05:48:46.435Z,5.6
2023-04-02T05:54:32.978Z,5.9
2023-04-02T06:00:21.213Z,5.7
2023-04-02T06:06:08.729Z,5.6
2023-04-02T06:11:54.954Z,6.2
2023-04-02T06:17:44.033Z,5.9
2023-04-02T06:23:31.034Z,6.2
2023-04-02T06:29:19.811Z,5.8
2023-04-02T06:35:03.994Z,6.2
2023-04-02T06:40:50.871Z,6.4
2023-04-02T06:46:38.032Z,6.7
2023-04-02T06:52:25.436Z,6.5
2023-04-02T06:58:10.968Z,6
2023-04-02T07:03:55.137Z,6.7
2023-04-02T07:09:39.151Z,6.6
2023-04-02T07:15:23.743Z,6.5
2023-04-02T07:21:08.154Z,5.8
2023-04-02T07:26:52.155Z,5.7
2023-04-02T07:32:36.376Z,6
2023-04-02T07:38:20.471Z,5.9
2023-04-02T07:44:06.190Z,6.3
2023-04-02T07:49:50.446Z,6.1
2023-04-02T07:55:34.966Z,5.7
2023-04-02T08:01:21.400Z,5.8
2023-04-02T08:07:05.419Z,5.7
2023-04-02T08:12:49.710Z,5.4
2023-04-02T08:18:33.725Z,5.4
2023-04-02T08:24:17.740Z,5.4
2023-04-02T08:30:02.058Z,5.3
2023-04-02T08:35:46.241Z,5.3
2023-04-02T08:41:30.445Z,6
2023-04-02T08:47:16.419Z,6
2023-04-02T08:53:00.974Z,5.7
2023-04-02T08:58:46.731Z,6.1
2023-04-02T09:04:30.945Z,5.9
2023-04-02T09:10:18.868Z,6.3
2023-04-02T09:16:06.012Z,6.4
2023-04-02T09:21:54.683Z,6.5
2023-04-02T09:27:38.871Z,6.3
2023-04-02T09:33:28.121Z,6
2023-04-02T09:39:17.069Z,5.9
2023-04-02T09:45:07.944Z,5.7
2023-04-02T09:50:52.133Z,5.5
2023-04-02T09:56:37.921Z,5.4
2023-04-02T10:02:31.749Z,5.4
2023-04-02T10:08:20.866Z,5.6
2023-04-02T10:14:06.898Z,5.3
2023-04-02T10:19:53.181Z,5.4
2023-04-02T10:25:42.274Z,5.5
2023-04-02T10:31:28.335Z,5.3
2023-04-02T10:37:20.754Z,5.4
2023-04-02T10:43:10.447Z,5.4
2023-04-02T10:48:59.407Z,5.6
2023-04-02T10:54:47.028Z,5.4
2023-04-02T11:00:32.518Z,5.2
2023-04-02T11:06:21.347Z,32.3
2023-04-02T11:12:07.894Z,47.6
2023-04-02T11:17:52.299Z,77.9
2023-04-02T11:23:37.447Z,59.2
2023-04-02T11:29:23.675Z,123.6
2023-04-02T11:35:21.513Z,90.9
2023-04-02T11:41:05.605Z,83.6
2023-04-02T11:46:50.132Z,73.9
2023-04-02T11:52:36.267Z,64.5
2023-04-02T11:58:40.269Z,62.4
2023-04-02T12:04:40.826Z,58.6
2023-04-02T12:10:26.385Z,54
2023-04-02T12:16:11.492Z,51.3
2023-04-02T12:21:55.534Z,43.4
2023-04-02T12:27:39.527Z,41.5
2023-04-02T12:33:31.141Z,37.5
2023-04-02T12:39:19.225Z,35.1
2023-04-02T12:45:03.658Z,31.8
2023-04-02T12:50:47.867Z,29.9
2023-04-02T12:56:32.043Z,26.8
2023-04-02T13:02:22.847Z,25.5
2023-04-02T13:08:18.098Z,23.9
2023-04-02T13:14:03.597Z,21.1
2023-04-02T13:19:47.827Z,20.2
2023-04-02T13:25:34.197Z,17.9
2023-04-02T13:31:20.108Z,17.9
2023-04-02T13:37:04.486Z,15.5
2023-04-02T13:42:58.262Z,15.5
2023-04-02T13:48:42.758Z,14.4
2023-04-02T13:54:30.978Z,12.9
2023-04-02T14:00:15.950Z,12.4
2023-04-02T14:06:04.732Z,11
2023-04-02T14:11:54.080Z,10.9
2023-04-02T14:17:44.192Z,9.9
2023-04-02T14:23:36.955Z,9.2
2023-04-02T14:29:29.385Z,9.1
2023-04-02T14:35:17.910Z,8.8
2023-04-02T14:41:06.605Z,7.8
2023-04-02T14:46:52.238Z,7.7
2023-04-02T14:52:37.244Z,7.5
2023-04-02T14:58:25.389Z,7.4
2023-04-02T15:04:13.117Z,7.6
2023-04-02T15:10:02.437Z,6.7
2023-04-02T15:15:48.450Z,6.5
2023-04-02T15:21:57.077Z,5.9
2023-04-02T15:27:51.600Z,5.3
2023-04-02T15:33:42.508Z,5.5
2023-04-02T15:39:43.648Z,4.6
2023-04-02T15:45:31.600Z,4.6
2023-04-02T15:51:22.390Z,4.6
2023-04-02T15:57:13.457Z,4.2
2023-04-02T16:03:11.350Z,4.1
2023-04-02T16:09:04.268Z,4.1
2023-04-02T16:14:49.526Z,3.8
2023-04-02T16:20:36.775Z,4.1
2023-04-02T16:26:31.749Z,3.6
2023-04-02T16:32:21.068Z,3.7
2023-04-02T16:38:10.899Z,5.9
2023-04-02T16:44:00.638Z,4.2
2023-04-02T16:49:49.647Z,4
2023-04-02T16:55:38.862Z,3.9
2023-04-02T17:01:27.607Z,3.9
2023-04-02T17:07:12.907Z,3.5
2023-04-02T17:13:01.298Z,3.5
2023-04-02T17:18:48.342Z,3.4
2023-04-02T17:24:34.088Z,3.5
2023-04-02T17:30:20.701Z,3.5
2023-04-02T17:36:11.793Z,3.4
2023-04-02T17:42:00.763Z,3.6
2023-04-02T17:47:49.784Z,3.3
2023-04-02T17:53:45.483Z,3.1
2023-04-02T17:59:36.919Z,3.1
2023-04-02T18:05:26.217Z,3.3
2023-04-02T18:11:13.830Z,3.3
2023-04-02T18:17:03.018Z,3.2
2023-04-02T18:22:51.674Z,3.1
2023-04-02T18:28:49.785Z,3.3
2023-04-02T18:34:45.919Z,3
2023-04-02T18:40:37.417Z,3.2
2023-04-02T18:46:24.515Z,3.3
2023-04-02T18:52:13.520Z,3
2023-04-02T18:57:59.433Z,3.3
2023-04-02T19:03:46.484Z,2.9
2023-04-02T19:09:33.854Z,3.1
2023-04-02T19:15:21.373Z,3.3
2023-04-02T19:21:12.854Z,2.9
2023-04-02T19:27:00.915Z,3
2023-04-02T19:32:50.303Z,3.1
2023-04-02T19:38:44.111Z,3.4
2023-04-02T19:44:29.210Z,3.2
2023-04-02T19:50:13.772Z,3.5
2023-04-02T19:55:57.777Z,3.2
2023-04-02T20:01:41.787Z,3.3
2023-04-02T20:07:25.861Z,3.1
2023-04-02T20:13:10.229Z,3.3
2023-04-02T20:18:54.771Z,3.3
2023-04-02T20:24:38.920Z,3.7
2023-04-02T20:30:23.098Z,3.7
2023-04-02T20:36:09.167Z,3.6
2023-04-02T20:41:53.222Z,3.6
2023-04-02T20:47:37.825Z,3.5
2023-04-02T20:53:23.017Z,3.7
2023-04-02T20:59:07.050Z,3.8
2023-04-02T21:04:51.360Z,4.1
2023-04-02T21:10:36.023Z,3.9
2023-04-02T21:16:21.115Z,4.3
2023-04-02T21:22:05.280Z,4.1
2023-04-02T21:27:49.502Z,4.3
2023-04-02T21:33:33.959Z,4.2
2023-04-02T21:39:18.720Z,4.2
2023-04-02T21:45:02.736Z,4.5
2023-04-02T21:50:46.770Z,4.1
2023-04-02T21:56:31.576Z,4.3
2023-04-02T22:02:15.599Z,4.3
2023-04-02T22:07:59.678Z,4.4
2023-04-02T22:13:44.048Z,4.2
2023-04-02T22:19:28.236Z,4.4
2023-04-02T22:25:12.596Z,4.6
2023-04-02T22:30:57.201Z,4.7
2023-04-02T22:36:41.345Z,4.6
2023-04-02T22:42:25.289Z,4.7
2023-04-02T22:48:09.368Z,4.7
2023-04-02T22:53:55.013Z,4.5
2023-04-02T22:59:38.935Z,4.5
2023-04-02T23:05:24.285Z,4.5
2023-04-02T23:11:09.147Z,4.6
2023-04-02T23:16:53.085Z,4.1
2023-04-02T23:22:36.960Z,4.4
2023-04-02T23:28:20.976Z,4.5
2023-04-02T23:34:05.516Z,4.5
2023-04-02T23:39:49.656Z,4.5
2023-04-02T23:45:33.817Z,4.4
2023-04-02T23:51:18.075Z,4.5
2023-04-02T23:57:02.163Z,4.7
